Time;durP1;ratioP1;P1;durP2;ratioP2;P2;SDS_P1;SDS_P2;PMS_P1;PMS_P2;Temp;Humidity;BMP_temperature;BMP_pressure;BME280_temperature;BME280_humidity;BME280_pressure;Samples;Min_cycle;Max_cycle;Signal;HPM_P1;HPM_P2
2022/11/09 00:00:44;;;;;;;6.30;2.42;;;12.80;99.90;;;;;;7385269;19;20019;-40
2022/11/09 00:03:11;;;;;;;7.15;2.30;;;12.80;99.90;;;;;;7386202;19;20070;-40
2022/11/09 00:05:38;;;;;;;5.15;2.38;;;12.90;99.90;;;;;;7382562;19;20018;-42
2022/11/09 00:08:06;;;;;;;8.43;2.30;;;12.80;99.90;;;;;;7382136;19;20548;-47
2022/11/09 00:10:33;;;;;;;8.77;3.30;;;12.80;99.90;;;;;;7383240;19;20026;-48
2022/11/09 00:12:59;;;;;;;4.63;2.22;;;12.80;99.90;;;;;;7382923;19;20022;-46
2022/11/09 00:15:28;;;;;;;9.43;2.78;;;12.80;99.90;;;;;;7379339;19;20010;-47
2022/11/09 00:17:54;;;;;;;10.13;2.90;;;12.80;99.90;;;;;;7381504;19;20040;-47
2022/11/09 00:20:20;;;;;;;5.88;2.88;;;12.80;99.90;;;;;;7383466;19;20018;-50
2022/11/09 00:22:48;;;;;;;6.63;2.85;;;12.80;99.90;;;;;;7379230;19;20041;-49
2022/11/09 00:25:15;;;;;;;6.20;2.45;;;12.80;99.90;;;;;;7382187;19;20026;-48
2022/11/09 00:27:41;;;;;;;5.93;2.33;;;12.80;99.90;;;;;;7383006;19;20043;-48
2022/11/09 00:30:09;;;;;;;5.30;2.53;;;12.80;99.90;;;;;;7379169;19;20415;-45
2022/11/09 00:32:35;;;;;;;4.35;2.47;;;12.90;99.90;;;;;;7377999;19;20027;-46
2022/11/09 00:35:02;;;;;;;5.65;2.10;;;12.80;99.90;;;;;;7374076;19;20510;-49
2022/11/09 00:37:29;;;;;;;5.85;2.55;;;12.80;99.90;;;;;;7374053;19;20022;-45
2022/11/09 00:39:55;;;;;;;6.18;2.22;;;12.80;99.90;;;;;;7373828;19;20035;-46
2022/11/09 00:42:21;;;;;;;8.25;3.67;;;12.80;99.90;;;;;;7380057;19;20490;-45
2022/11/09 00:44:50;;;;;;;6.13;2.40;;;12.80;99.90;;;;;;7373752;19;20460;-48
2022/11/09 00:47:16;;;;;;;5.85;2.63;;;12.90;99.90;;;;;;7375970;19;20022;-48
2022/11/09 00:49:42;;;;;;;5.53;2.67;;;12.90;99.90;;;;;;7376287;19;20026;-46
2022/11/09 00:52:08;;;;;;;4.75;2.35;;;12.90;99.90;;;;;;7379845;19;20010;-48
2022/11/09 00:54:35;;;;;;;7.90;2.70;;;12.90;99.90;;;;;;7373032;19;20054;-48
2022/11/09 00:57:01;;;;;;;8.27;2.47;;;12.90;99.90;;;;;;7373325;19;20022;-40
2022/11/09 00:59:28;;;;;;;3.78;2.28;;;12.90;99.90;;;;;;7373036;19;20014;-45
2022/11/09 01:01:54;;;;;;;5.80;2.10;;;12.90;99.90;;;;;;7376173;19;20023;-49
2022/11/09 01:04:20;;;;;;;6.80;2.17;;;12.90;99.90;;;;;;7372098;19;20035;-47
2022/11/09 01:06:48;;;;;;;5.10;2.33;;;12.90;99.90;;;;;;7373397;19;20010;-46
2022/11/09 01:09:14;;;;;;;5.57;2.53;;;12.90;99.90;;;;;;7380541;19;20021;-44
2022/11/09 01:11:41;;;;;;;7.00;2.80;;;12.90;99.90;;;;;;7372709;19;20555;-48
2022/11/09 01:14:08;;;;;;;6.00;2.42;;;12.80;99.90;;;;;;7378735;19;20680;-45
2022/11/09 01:16:35;;;;;;;5.38;2.30;;;12.80;99.90;;;;;;7369060;19;20577;-44
2022/11/09 01:19:03;;;;;;;6.25;2.78;;;12.80;99.90;;;;;;7375129;19;20047;-48
2022/11/09 01:21:29;;;;;;;7.13;2.28;;;12.80;99.90;;;;;;7373847;19;20019;-48
2022/11/09 01:24:00;;;;;;;5.57;2.42;;;12.70;99.90;;;;;;7372631;19;20015;-44
2022/11/09 01:26:27;;;;;;;4.43;1.90;;;12.70;99.90;;;;;;7372421;19;20046;-45
2022/11/09 01:28:54;;;;;;;4.03;2.20;;;12.60;99.90;;;;;;7374657;19;20038;-45
2022/11/09 01:31:21;;;;;;;9.70;2.50;;;12.60;99.90;;;;;;7372736;19;20014;-47
2022/11/09 01:33:47;;;;;;;6.32;2.05;;;12.60;99.90;;;;;;7372391;19;20024;-47
2022/11/09 01:36:20;;;;;;;5.78;2.15;;;12.50;99.90;;;;;;7375206;19;20081;-46
2022/11/09 01:38:47;;;;;;;8.98;2.58;;;12.40;99.90;;;;;;7368993;19;20015;-44
2022/11/09 01:41:22;;;;;;;9.05;2.78;;;12.40;99.90;;;;;;7375365;19;20050;-45
2022/11/09 01:44:11;;;;;;;6.55;2.22;;;12.40;99.90;;;;;;7373729;19;20379;-44
2022/11/09 01:46:55;;;;;;;6.20;3.35;;;12.30;99.90;;;;;;7375210;19;20035;-45
2022/11/09 01:49:42;;;;;;;8.20;3.38;;;12.40;99.90;;;;;;7377658;19;20014;-49
2022/11/09 01:52:17;;;;;;;7.75;2.40;;;12.40;99.90;;;;;;7376310;19;20046;-47
2022/11/09 01:54:47;;;;;;;6.38;2.53;;;12.40;99.90;;;;;;7372740;19;20028;-46
2022/11/09 01:57:26;;;;;;;7.63;2.45;;;12.40;99.90;;;;;;7373075;19;20018;-49
2022/11/09 02:00:18;;;;;;;4.53;2.47;;;12.40;99.90;;;;;;7372352;19;20698;-49
2022/11/09 02:02:51;;;;;;;;;;;12.40;99.90;;;;;;7373348;19;20041;-46
2022/11/09 02:05:24;;;;;;;6.07;2.35;;;12.30;99.90;;;;;;7370244;19;19915;-49
2022/11/09 02:07:54;;;;;;;5.72;2.25;;;12.30;99.90;;;;;;7371183;19;20443;-47
2022/11/09 02:10:26;;;;;;;4.43;2.00;;;12.30;99.90;;;;;;7372252;19;20617;-41
2022/11/09 02:12:53;;;;;;;5.28;2.75;;;12.20;99.90;;;;;;7370266;19;20018;-40
2022/11/09 02:15:20;;;;;;;6.90;2.50;;;12.20;99.90;;;;;;7374752;19;20367;-40
2022/11/09 02:17:51;;;;;;;6.80;2.65;;;12.20;99.90;;;;;;7372866;19;20030;-40
2022/11/09 02:20:18;;;;;;;7.65;2.20;;;12.20;99.90;;;;;;7376328;19;20018;-49
2022/11/09 02:22:45;;;;;;;10.00;2.70;;;12.10;99.90;;;;;;7372469;19;20028;-40
2022/11/09 02:25:16;;;;;;;6.18;2.33;;;12.10;99.90;;;;;;7373413;19;20029;-40
2022/11/09 02:27:43;;;;;;;6.85;2.22;;;12.10;99.90;;;;;;7374069;19;20014;-40
2022/11/09 02:30:11;;;;;;;6.93;2.40;;;12.10;99.90;;;;;;7371680;19;20501;-40
2022/11/09 02:32:37;;;;;;;7.85;2.33;;;12.20;99.90;;;;;;7368723;19;20015;-40
2022/11/09 02:35:04;;;;;;;7.53;2.33;;;12.20;99.90;;;;;;7364022;19;20607;-40
2022/11/09 02:37:35;;;;;;;8.40;2.28;;;12.10;99.90;;;;;;7371419;19;20014;-40
2022/11/09 02:40:06;;;;;;;8.13;2.20;;;12.10;99.90;;;;;;7373448;19;20434;-39
2022/11/09 02:42:33;;;;;;;3.78;1.77;;;12.10;99.90;;;;;;7375239;19;20014;-41
2022/11/09 02:44:59;;;;;;;7.68;2.50;;;12.10;99.90;;;;;;7371419;19;20449;-40
2022/11/09 02:47:26;;;;;;;9.88;2.53;;;12.00;99.90;;;;;;7373307;19;20014;-40
2022/11/09 02:49:52;;;;;;;10.18;2.60;;;12.00;99.90;;;;;;7372678;19;20086;-39
2022/11/09 02:52:19;;;;;;;7.03;2.47;;;12.00;99.90;;;;;;7373903;19;20019;-40
2022/11/09 02:54:46;;;;;;;6.20;2.30;;;12.00;99.90;;;;;;7364929;19;20014;-39
2022/11/09 02:57:12;;;;;;;4.95;1.77;;;12.10;99.90;;;;;;7369405;19;20018;-40
2022/11/09 02:59:39;;;;;;;7.65;2.28;;;12.10;99.90;;;;;;7367648;19;20022;-40
2022/11/09 03:02:06;;;;;;;6.60;2.05;;;12.20;99.90;;;;;;7369391;19;20018;-40
2022/11/09 03:04:32;;;;;;;6.07;2.13;;;12.20;99.90;;;;;;7366868;19;20019;-49
2022/11/09 03:06:59;;;;;;;9.60;2.30;;;12.20;99.90;;;;;;7368112;19;20382;-39
2022/11/09 03:09:26;;;;;;;6.95;1.90;;;12.20;99.90;;;;;;7371286;19;20015;-49
2022/11/09 03:11:52;;;;;;;6.25;2.00;;;12.10;99.90;;;;;;7364936;19;20036;-47
2022/11/09 03:14:19;;;;;;;7.32;2.30;;;12.10;99.90;;;;;;7369919;19;20027;-48
2022/11/09 03:16:50;;;;;;;6.38;1.77;;;12.10;99.90;;;;;;7370962;19;20538;-48
2022/11/09 03:19:17;;;;;;;11.63;2.13;;;12.10;99.90;;;;;;7370056;19;20018;-47
2022/11/09 03:21:45;;;;;;;11.35;2.80;;;12.00;99.90;;;;;;7370596;19;20023;-46
2022/11/09 03:24:11;;;;;;;10.73;2.22;;;12.00;99.90;;;;;;7372238;19;20026;-49
2022/11/09 03:26:39;;;;;;;7.15;2.17;;;12.00;99.90;;;;;;7369736;19;20583;-39
2022/11/09 03:29:05;;;;;;;7.22;2.67;;;12.00;99.90;;;;;;7372626;19;20548;-39
2022/11/09 03:31:31;;;;;;;6.70;2.10;;;12.00;99.90;;;;;;7368088;19;20018;-40
2022/11/09 03:34:02;;;;;;;9.38;2.13;;;11.90;99.90;;;;;;7368731;19;20022;-39
2022/11/09 03:36:28;;;;;;;7.85;2.10;;;11.80;99.90;;;;;;7363640;19;21074;-40
2022/11/09 03:38:54;;;;;;;6.00;2.42;;;11.80;99.90;;;;;;7361197;19;20038;-48
2022/11/09 03:41:21;;;;;;;7.00;2.00;;;11.70;99.90;;;;;;7371611;19;20815;-44
2022/11/09 03:43:47;;;;;;;6.82;2.08;;;11.70;99.90;;;;;;7369799;19;20608;-47
2022/11/09 03:46:13;;;;;;;7.55;2.17;;;11.60;99.90;;;;;;7371419;19;20055;-44
2022/11/09 03:48:39;;;;;;;9.15;2.45;;;11.60;99.90;;;;;;7369904;19;20019;-46
2022/11/09 03:51:05;;;;;;;9.32;2.60;;;11.50;99.90;;;;;;7370973;19;20025;-47
2022/11/09 03:53:31;;;;;;;6.28;2.50;;;11.60;99.90;;;;;;7370688;19;20043;-44
2022/11/09 03:55:58;;;;;;;9.07;1.95;;;11.60;99.90;;;;;;7366657;19;20029;-48
2022/11/09 03:58:24;;;;;;;7.80;2.47;;;11.70;99.90;;;;;;7361327;19;20055;-45
2022/11/09 04:00:50;;;;;;;9.70;2.33;;;11.60;99.90;;;;;;7364370;19;20046;-49
2022/11/09 04:03:16;;;;;;;7.03;2.20;;;11.70;99.90;;;;;;7366474;19;20019;-46
2022/11/09 04:05:42;;;;;;;11.77;2.17;;;11.80;99.90;;;;;;7372499;19;20476;-46
2022/11/09 04:08:08;;;;;;;4.93;2.50;;;12.00;99.90;;;;;;7375832;19;20366;-40
2022/11/09 04:10:35;;;;;;;9.45;2.25;;;12.00;99.90;;;;;;7369947;19;20019;-45
2022/11/09 04:13:01;;;;;;;6.80;2.10;;;12.00;99.90;;;;;;7379170;19;20774;-39
2022/11/09 04:15:28;;;;;;;6.63;2.25;;;12.00;99.90;;;;;;7380234;19;20052;-48
2022/11/09 04:17:58;;;;;;;5.22;2.30;;;12.00;99.90;;;;;;7374395;19;20799;-45
2022/11/09 04:20:26;;;;;;;5.95;2.35;;;12.00;99.90;;;;;;7374379;19;20384;-53
2022/11/09 04:22:57;;;;;;;6.15;2.50;;;11.90;99.90;;;;;;7379243;19;20035;-39
2022/11/09 04:25:24;;;;;;;5.72;2.40;;;11.90;99.90;;;;;;7380579;19;20030;-48
2022/11/09 04:27:55;;;;;;;7.47;2.22;;;11.90;99.90;;;;;;7373941;19;20017;-47
2022/11/09 04:30:21;;;;;;;9.48;2.30;;;11.90;99.90;;;;;;7374617;19;20019;-44
2022/11/09 04:32:48;;;;;;;7.28;2.60;;;11.90;99.90;;;;;;7376738;19;20608;-45
2022/11/09 04:35:14;;;;;;;7.20;2.58;;;11.80;99.90;;;;;;7376320;19;20022;-46
2022/11/09 04:37:40;;;;;;;9.93;3.70;;;11.80;99.90;;;;;;7374822;19;20044;-39
2022/11/09 04:40:07;;;;;;;8.68;2.35;;;11.80;99.90;;;;;;7367167;19;20078;-41
2022/11/09 04:42:33;;;;;;;7.72;2.50;;;11.90;99.90;;;;;;7371764;19;20030;-39
2022/11/09 04:44:59;;;;;;;9.82;2.70;;;11.80;99.90;;;;;;7379062;19;20461;-39
2022/11/09 04:47:26;;;;;;;10.23;3.10;;;11.90;99.90;;;;;;7375558;19;20495;-39
2022/11/09 04:49:52;;;;;;;6.93;2.25;;;11.90;99.90;;;;;;7375670;19;20604;-39
2022/11/09 04:52:18;;;;;;;8.43;3.22;;;11.80;99.90;;;;;;7370816;19;20015;-39
2022/11/09 04:54:45;;;;;;;6.82;2.28;;;11.90;99.90;;;;;;7375165;19;20587;-39
2022/11/09 04:57:11;;;;;;;6.05;2.55;;;12.00;99.90;;;;;;7373983;19;20022;-39
2022/11/09 04:59:37;;;;;;;7.85;2.85;;;12.00;99.90;;;;;;7375401;19;20030;-39
2022/11/09 05:02:03;;;;;;;7.70;2.00;;;12.00;99.90;;;;;;7371376;19;20022;-40
2022/11/09 05:04:29;;;;;;;6.05;2.35;;;12.00;99.90;;;;;;7376044;19;20015;-39
2022/11/09 05:06:55;;;;;;;8.90;2.63;;;12.00;99.90;;;;;;7377246;19;20014;-39
2022/11/09 05:09:21;;;;;;;6.18;2.92;;;12.10;99.90;;;;;;7377618;19;20018;-41
2022/11/09 05:11:50;;;;;;;6.95;2.92;;;12.10;99.90;;;;;;7368576;19;20014;-39
2022/11/09 05:14:16;;;;;;;7.20;2.63;;;12.00;99.90;;;;;;7369188;19;20148;-40
2022/11/09 05:16:43;;;;;;;8.60;2.33;;;12.10;99.90;;;;;;7366144;19;20583;-39
2022/11/09 05:19:09;;;;;;;8.73;2.22;;;12.20;99.90;;;;;;7374275;19;20019;-39
2022/11/09 05:21:35;;;;;;;6.60;2.13;;;12.10;99.90;;;;;;7375441;19;20021;-41
2022/11/09 05:24:01;;;;;;;7.45;2.38;;;12.20;99.90;;;;;;7374905;19;20448;-38
2022/11/09 05:26:37;;;;;;;8.93;2.20;;;12.20;99.90;;;;;;7375016;19;20420;-39
2022/11/09 05:29:05;;;;;;;7.60;2.75;;;12.20;99.90;;;;;;7374867;19;20566;-39
2022/11/09 05:31:32;;;;;;;6.13;2.22;;;12.10;99.90;;;;;;7372262;19;20015;-39
2022/11/09 05:33:59;;;;;;;8.82;2.45;;;12.10;99.90;;;;;;7374728;19;20025;-44
2022/11/09 05:36:26;;;;;;;7.20;2.25;;;12.10;99.90;;;;;;7375744;19;20025;-47
2022/11/09 05:38:53;;;;;;;9.43;2.42;;;12.10;99.90;;;;;;7374063;19;20027;-47
2022/11/09 05:41:20;;;;;;;6.78;2.67;;;12.00;99.90;;;;;;7374956;19;20687;-45
2022/11/09 05:43:46;;;;;;;4.82;2.05;;;12.00;99.90;;;;;;7371441;19;20046;-45
2022/11/09 05:46:13;;;;;;;8.45;2.28;;;11.90;99.90;;;;;;7371624;19;20420;-39
2022/11/09 05:48:41;;;;;;;11.45;2.33;;;11.80;99.90;;;;;;7371381;19;20054;-38
2022/11/09 05:51:11;;;;;;;4.70;2.35;;;11.80;99.90;;;;;;7379634;19;20022;-39
2022/11/09 05:53:38;;;;;;;8.90;2.42;;;11.80;99.90;;;;;;7371917;19;20021;-39
2022/11/09 05:56:08;;;;;;;7.95;3.17;;;11.60;99.90;;;;;;7374529;19;20953;-43
2022/11/09 05:58:37;;;;;;;8.32;2.63;;;11.60;99.90;;;;;;7376228;19;20474;-47
2022/11/09 06:01:15;;;;;;;5.53;2.22;;;11.60;99.90;;;;;;7375621;19;20386;-44
2022/11/09 06:03:42;;;;;;;7.28;2.30;;;11.60;99.90;;;;;;7372799;19;20015;-46
2022/11/09 06:06:11;;;;;;;8.40;2.28;;;11.50;99.90;;;;;;7370787;19;20022;-44
2022/11/09 06:08:37;;;;;;;7.72;2.38;;;11.50;99.90;;;;;;7372905;19;20015;-45
2022/11/09 06:11:08;;;;;;;6.03;2.28;;;11.40;99.90;;;;;;7374400;19;20569;-45
2022/11/09 06:13:36;;;;;;;6.55;1.92;;;11.40;99.90;;;;;;7375802;19;20497;-46
2022/11/09 06:16:04;;;;;;;7.90;2.38;;;11.40;99.90;;;;;;7370661;19;20492;-45
2022/11/09 06:18:32;;;;;;;9.18;2.55;;;11.40;99.90;;;;;;7371281;19;20022;-39
2022/11/09 06:21:01;;;;;;;6.43;2.50;;;11.40;99.90;;;;;;7362909;19;20038;-45
2022/11/09 06:23:28;;;;;;;8.13;2.05;;;11.50;99.90;;;;;;7359744;19;20031;-47
2022/11/09 06:25:58;;;;;;;4.80;2.08;;;11.50;99.90;;;;;;7362556;19;20018;-47
2022/11/09 06:28:25;;;;;;;6.95;2.50;;;11.40;99.90;;;;;;7361056;19;20954;-48
2022/11/09 06:30:52;;;;;;;7.13;2.20;;;11.40;99.90;;;;;;7369116;19;20082;-47
2022/11/09 06:33:18;;;;;;;9.05;2.58;;;11.30;99.90;;;;;;7370742;19;20106;-38
2022/11/09 06:35:44;;;;;;;8.30;2.28;;;11.30;99.90;;;;;;7364937;19;20014;-38
2022/11/09 06:38:11;;;;;;;10.38;1.92;;;11.30;99.90;;;;;;7363286;19;20119;-44
2022/11/09 06:40:38;;;;;;;10.63;2.70;;;11.30;99.90;;;;;;7365551;19;20026;-44
2022/11/09 06:43:05;;;;;;;8.05;2.08;;;11.30;99.90;;;;;;7360638;19;20369;-39
2022/11/09 06:45:32;;;;;;;12.52;2.15;;;11.30;99.90;;;;;;7365605;19;20090;-39
2022/11/09 06:48:00;;;;;;;8.93;2.40;;;11.40;99.90;;;;;;7366000;19;22100;-38
2022/11/09 06:50:29;;;;;;;10.90;2.13;;;11.40;99.90;;;;;;7363691;19;20021;-38
2022/11/09 06:53:06;;;;;;;12.10;2.65;;;11.40;99.90;;;;;;7364450;19;20029;-46
2022/11/09 06:55:34;;;;;;;10.10;2.22;;;11.50;99.90;;;;;;7365157;19;20030;-46
2022/11/09 06:58:05;;;;;;;8.90;2.30;;;11.40;99.90;;;;;;7368518;19;20022;-39
2022/11/09 07:00:31;;;;;;;9.33;3.93;;;11.40;99.90;;;;;;7367436;19;20017;-43
2022/11/09 07:03:01;;;;;;;10.07;2.75;;;11.40;99.90;;;;;;7369182;19;20370;-44
2022/11/09 07:05:27;;;;;;;10.30;2.22;;;11.40;99.90;;;;;;7368722;19;20018;-46
2022/11/09 07:07:53;;;;;;;9.13;2.72;;;11.30;99.90;;;;;;7367990;19;20014;-38
2022/11/09 07:10:19;;;;;;;10.63;2.58;;;11.30;99.90;;;;;;7368593;19;20010;-44
2022/11/09 07:12:46;;;;;;;6.65;2.17;;;11.20;99.90;;;;;;7365755;19;20022;-46
2022/11/09 07:15:13;;;;;;;8.73;1.95;;;11.20;99.90;;;;;;7365878;19;20749;-45
2022/11/09 07:17:40;;;;;;;5.95;2.00;;;11.10;99.90;;;;;;7366132;19;20029;-46
2022/11/09 07:20:07;;;;;;;10.20;2.35;;;11.20;99.90;;;;;;7356309;19;20025;-45
2022/11/09 07:22:38;;;;;;;8.48;3.20;;;11.20;99.90;;;;;;7359921;19;20421;-44
2022/11/09 07:25:09;;;;;;;8.95;2.28;;;11.10;99.90;;;;;;7353608;19;20057;-47
2022/11/09 07:27:35;;;;;;;9.15;2.10;;;11.10;99.90;;;;;;7360648;19;20019;-45
2022/11/09 07:30:03;;;;;;;8.43;2.42;;;11.20;99.90;;;;;;7368655;19;20023;-45
2022/11/09 07:32:33;;;;;;;7.72;2.10;;;11.20;99.90;;;;;;7368692;19;20601;-45
2022/11/09 07:34:59;;;;;;;9.65;2.42;;;11.20;99.90;;;;;;7361617;19;20019;-47
2022/11/09 07:37:25;;;;;;;11.00;3.28;;;11.30;99.90;;;;;;7362614;19;20139;-45
2022/11/09 07:39:51;;;;;;;6.80;2.25;;;11.30;99.90;;;;;;7366424;19;20038;-46
2022/11/09 07:42:17;;;;;;;7.93;2.70;;;11.30;99.90;;;;;;7378356;19;20508;-46
2022/11/09 07:44:45;;;;;;;8.27;2.75;;;11.40;99.90;;;;;;7373950;19;20310;-39
2022/11/09 07:47:12;;;;;;;11.07;3.00;;;11.40;99.90;;;;;;7377482;19;20018;-45
2022/11/09 07:49:38;;;;;;;10.35;3.00;;;11.50;99.90;;;;;;7378010;19;20078;-45
2022/11/09 07:52:04;;;;;;;9.93;2.65;;;11.50;99.90;;;;;;7373920;19;20242;-46
2022/11/09 07:54:30;;;;;;;10.93;3.28;;;11.50;99.90;;;;;;7375786;19;20093;-44
2022/11/09 07:56:57;;;;;;;9.98;2.20;;;11.50;99.90;;;;;;7369084;19;20406;-49
2022/11/09 07:59:23;;;;;;;8.27;2.65;;;11.60;99.90;;;;;;7365889;19;20383;-46
2022/11/09 08:01:49;;;;;;;11.57;2.65;;;11.60;99.90;;;;;;7369702;19;20594;-39
2022/11/09 08:04:16;;;;;;;7.85;2.58;;;11.70;99.90;;;;;;7374315;19;20044;-38
2022/11/09 08:06:42;;;;;;;8.02;2.58;;;11.70;99.90;;;;;;7373694;19;20023;-43
2022/11/09 08:09:08;;;;;;;10.55;2.75;;;11.80;99.90;;;;;;7373396;19;20019;-48
2022/11/09 08:11:35;;;;;;;8.18;2.50;;;11.80;99.90;;;;;;7374931;19;20322;-39
2022/11/09 08:14:01;;;;;;;9.60;2.60;;;11.80;99.90;;;;;;7376209;19;20073;-39
2022/11/09 08:16:28;;;;;;;11.95;2.70;;;11.90;99.90;;;;;;7374707;19;20014;-47
2022/11/09 08:18:54;;;;;;;9.00;3.03;;;12.00;99.90;;;;;;7373332;19;20044;-46
2022/11/09 08:21:20;;;;;;;8.05;2.35;;;12.30;99.90;;;;;;7375847;19;20029;-44
2022/11/09 08:23:46;;;;;;;8.10;2.55;;;12.90;99.90;;;;;;7373022;19;20018;-43
2022/11/09 08:26:12;;;;;;;14.27;2.88;;;13.40;99.90;;;;;;7373984;19;20037;-40
2022/11/09 08:28:39;;;;;;;8.82;2.70;;;13.90;99.90;;;;;;7371726;19;20423;-41
2022/11/09 08:31:06;;;;;;;9.30;2.80;;;14.10;99.90;;;;;;7368521;19;20446;-42
2022/11/09 08:33:35;;;;;;;10.02;2.88;;;14.20;99.90;;;;;;7367484;19;20036;-48
2022/11/09 08:36:08;;;;;;;8.60;2.45;;;14.40;99.90;;;;;;7368881;19;20357;-45
2022/11/09 08:38:35;;;;;;;9.52;2.78;;;14.40;99.90;;;;;;7364098;19;20416;-47
2022/11/09 08:41:01;;;;;;;9.60;2.50;;;14.60;99.90;;;;;;7370409;19;20018;-48
2022/11/09 08:43:27;;;;;;;15.32;2.47;;;14.90;99.90;;;;;;7375246;19;20105;-47
2022/11/09 08:45:53;;;;;;;10.32;2.95;;;15.30;99.90;;;;;;7373274;19;20758;-40
2022/11/09 08:48:20;;;;;;;5.80;2.28;;;15.50;99.90;;;;;;7377047;19;20014;-40
2022/11/09 08:50:54;;;;;;;7.38;2.15;;;15.70;99.90;;;;;;7365134;19;20510;-45
2022/11/09 08:53:22;;;;;;;8.93;2.17;;;15.80;99.90;;;;;;7377376;19;20379;-45
2022/11/09 08:55:49;;;;;;;7.47;2.28;;;16.40;99.90;;;;;;7370724;19;20019;-44
2022/11/09 08:58:15;;;;;;;10.00;2.83;;;16.60;99.90;;;;;;7374633;19;20015;-47
2022/11/09 09:00:42;;;;;;;9.77;2.60;;;16.80;99.90;;;;;;7367139;19;20286;-44
2022/11/09 09:03:08;;;;;;;13.05;2.53;;;16.70;99.90;;;;;;7370733;19;20021;-40
2022/11/09 09:05:35;;;;;;;8.77;2.50;;;16.80;99.90;;;;;;7374393;19;20108;-48
2022/11/09 09:08:03;;;;;;;6.70;2.05;;;16.50;99.90;;;;;;7367459;19;20015;-42
2022/11/09 09:10:31;;;;;;;8.82;2.33;;;16.40;99.90;;;;;;7364892;19;20014;-40
2022/11/09 09:12:57;;;;;;;7.10;2.42;;;16.10;99.90;;;;;;7365428;19;20022;-42
2022/11/09 09:15:24;;;;;;;9.20;2.30;;;16.60;99.90;;;;;;7367994;19;20011;-45
2022/11/09 09:17:51;;;;;;;7.15;2.13;;;16.40;99.90;;;;;;7368280;19;20026;-46
2022/11/09 09:20:17;;;;;;;12.85;2.58;;;16.10;99.90;;;;;;7366455;19;20030;-39
2022/11/09 09:22:44;;;;;;;9.02;2.47;;;15.70;99.90;;;;;;7369767;19;20050;-40
2022/11/09 09:25:10;;;;;;;8.75;2.30;;;15.80;99.90;;;;;;7370825;19;20049;-39
2022/11/09 09:27:37;;;;;;;8.68;2.55;;;15.60;99.90;;;;;;7374642;19;20048;-40
2022/11/09 09:30:03;;;;;;;10.82;2.75;;;15.20;99.90;;;;;;7371988;19;20045;-40
2022/11/09 09:32:30;;;;;;;9.75;2.80;;;15.10;99.90;;;;;;7369853;19;20018;-40
2022/11/09 09:34:56;;;;;;;11.77;3.45;;;15.30;99.90;;;;;;7374748;19;20021;-40
2022/11/09 09:37:23;;;;;;;8.02;2.53;;;15.20;99.90;;;;;;7374094;19;20018;-39
2022/11/09 09:39:50;;;;;;;12.05;2.67;;;15.00;99.90;;;;;;7373774;19;20011;-39
2022/11/09 09:42:24;;;;;;;12.60;2.72;;;15.30;99.90;;;;;;7374239;19;20054;-39
2022/11/09 09:45:13;;;;;;;10.20;3.03;;;15.20;99.90;;;;;;7369866;19;20014;-46
2022/11/09 09:47:54;;;;;;;10.13;2.72;;;15.30;99.90;;;;;;7371875;19;20493;-45
2022/11/09 09:50:28;;;;;;;9.90;2.90;;;15.70;99.90;;;;;;7376988;19;20391;-40
2022/11/09 09:53:02;;;;;;;9.15;3.00;;;16.20;99.90;;;;;;7371650;19;20047;-45
2022/11/09 09:55:37;;;;;;;11.20;3.67;;;16.10;99.90;;;;;;7370807;19;20391;-40
2022/11/09 09:58:33;;;;;;;7.32;2.50;;;16.10;99.90;;;;;;7362438;19;20386;-45
2022/11/09 10:01:14;;;;;;;6.18;2.42;;;15.60;99.90;;;;;;7364061;19;20019;-41
2022/11/09 10:03:40;;;;;;;8.55;2.28;;;16.10;99.90;;;;;;7366296;19;20025;-40
2022/11/09 10:06:25;;;;;;;9.38;2.70;;;16.50;99.90;;;;;;7365258;19;20007;-48
2022/11/09 10:09:01;;;;;;;11.77;3.00;;;16.40;99.90;;;;;;7368750;19;20529;-48
2022/11/09 10:12:00;;;;;;;7.25;2.70;;;16.70;99.90;;;;;;7374482;19;20019;-49
2022/11/09 10:14:42;;;;;;;10.38;2.35;;;16.90;99.90;;;;;;7367313;19;20457;-40
2022/11/09 10:17:27;;;;;;;9.43;2.63;;;16.30;99.90;;;;;;7374890;19;20054;-46
2022/11/09 10:20:10;;;;;;;11.27;2.50;;;15.80;99.90;;;;;;7368918;19;20015;-39
2022/11/09 10:23:04;;;;;;;10.20;2.60;;;15.70;99.90;;;;;;7370788;19;20018;-40
2022/11/09 10:25:37;;;;;;;11.70;2.55;;;15.40;99.90;;;;;;7373828;19;20413;-47
2022/11/09 10:28:25;;;;;;;8.38;2.50;;;15.90;99.90;;;;;;7374234;19;20022;-39
2022/11/09 10:30:52;;;;;;;9.15;2.17;;;16.20;99.90;;;;;;7371847;19;20018;-41
2022/11/09 10:33:20;;;;;;;10.52;2.60;;;16.70;99.90;;;;;;7373461;19;20018;-39
2022/11/09 10:35:56;;;;;;;6.43;2.33;;;16.90;99.90;;;;;;7359295;19;20639;-45
2022/11/09 10:38:36;;;;;;;8.30;2.75;;;16.70;99.90;;;;;;7372946;19;20085;-45
2022/11/09 10:41:26;;;;;;;11.93;3.38;;;16.80;99.90;;;;;;7373329;19;20010;-49
2022/11/09 10:44:16;;;;;;;6.80;2.22;;;16.40;99.90;;;;;;7369857;19;20018;-45
2022/11/09 10:47:11;;;;;;;9.77;2.88;;;15.90;99.90;;;;;;7365157;19;20019;-46
2022/11/09 10:50:26;;;;;;;7.32;2.13;;;15.40;99.90;;;;;;7366678;19;20077;-46
2022/11/09 10:53:22;;;;;;;10.77;2.20;;;14.90;99.90;;;;;;7373183;19;20692;-45
2022/11/09 10:56:18;;;;;;;11.50;3.28;;;14.80;99.90;;;;;;7370829;19;20022;-47
2022/11/09 10:59:38;;;;;;;8.20;2.50;;;15.10;99.90;;;;;;7374716;19;20477;-44
2022/11/09 11:02:26;;;;;;;10.18;2.60;;;15.20;99.90;;;;;;7372871;19;20021;-45
2022/11/09 11:05:17;;;;;;;8.75;2.53;;;16.20;99.90;;;;;;7372771;19;20481;-40
2022/11/09 11:08:21;;;;;;;10.27;2.45;;;16.40;99.90;;;;;;7371263;19;20023;-41
2022/11/09 11:11:16;;;;;;;9.48;2.60;;;16.70;99.90;;;;;;7370977;19;20011;-39
2022/11/09 11:14:32;;;;;;;11.10;2.38;;;16.90;99.90;;;;;;7370568;19;20015;-40
2022/11/09 11:17:24;;;;;;;8.27;2.67;;;16.50;99.90;;;;;;7371948;19;20022;-46
2022/11/09 11:20:30;;;;;;;7.30;2.22;;;17.00;99.90;;;;;;7368348;19;20117;-48
2022/11/09 11:23:18;;;;;;;9.38;2.30;;;18.00;99.90;;;;;;7368712;19;20022;-47
2022/11/09 11:26:18;;;;;;;9.88;2.20;;;17.20;99.90;;;;;;7364105;19;20027;-39
2022/11/09 11:29:29;;;;;;;8.48;2.00;;;16.50;99.90;;;;;;7363541;19;20019;-46
2022/11/09 11:32:16;;;;;;;10.23;2.63;;;16.00;99.90;;;;;;7368688;19;20377;-48
2022/11/09 11:35:05;;;;;;;9.90;2.40;;;15.60;99.90;;;;;;7369586;19;20037;-47
2022/11/09 11:38:07;;;;;;;9.40;2.20;;;15.40;99.90;;;;;;7373380;19;20015;-46
2022/11/09 11:41:11;;;;;;;12.63;2.67;;;15.20;99.90;;;;;;7369336;19;20025;-45
2022/11/09 11:44:06;;;;;;;11.32;2.67;;;14.90;99.90;;;;;;7367706;19;20054;-45
2022/11/09 11:47:07;;;;;;;9.50;2.33;;;14.60;99.90;;;;;;7365469;19;20029;-45
2022/11/09 11:50:16;;;;;;;12.23;2.40;;;14.50;99.90;;;;;;7369329;19;20543;-45
2022/11/09 11:53:40;;;;;;;10.13;2.45;;;14.40;99.90;;;;;;7369695;19;20035;-49
2022/11/09 11:56:37;;;;;;;6.57;2.15;;;14.20;99.90;;;;;;7370828;19;20022;-47
2022/11/09 11:59:34;;;;;;;9.75;2.30;;;14.10;99.90;;;;;;7369893;19;20094;-45
2022/11/09 12:02:57;;;;;;;6.10;2.20;;;14.10;99.90;;;;;;7368736;19;20641;-47
2022/11/09 12:05:45;;;;;;;;;;;15.00;99.90;;;;;;7368405;19;20019;-44
2022/11/09 12:08:56;;;;;;;6.35;2.22;;;15.20;99.90;;;;;;7364414;19;19929;-46
2022/11/09 12:12:26;;;;;;;8.45;2.53;;;15.20;99.90;;;;;;7368612;19;20383;-45
2022/11/09 12:15:48;;;;;;;9.82;2.13;;;15.00;99.90;;;;;;7372170;19;20093;-45
2022/11/09 12:18:53;;;;;;;7.63;3.13;;;14.70;99.90;;;;;;7370251;19;20025;-47
2022/11/09 12:21:48;;;;;;;10.00;2.42;;;14.40;99.90;;;;;;7367634;19;20294;-44
2022/11/09 12:25:14;;;;;;;9.20;2.47;;;14.20;99.90;;;;;;7369184;19;20386;-46
2022/11/09 12:28:10;;;;;;;12.00;2.63;;;14.10;99.90;;;;;;7371582;19;20019;-47
2022/11/09 12:30:55;;;;;;;9.82;3.00;;;14.10;99.90;;;;;;7369115;19;20048;-45
2022/11/09 12:33:53;;;;;;;12.50;2.30;;;14.10;99.90;;;;;;7371903;19;20024;-44
2022/11/09 12:36:46;;;;;;;12.02;2.67;;;14.40;99.90;;;;;;7375320;19;20018;-47
2022/11/09 12:39:46;;;;;;;9.23;2.33;;;14.50;99.90;;;;;;7371505;19;20019;-44
2022/11/09 12:42:37;;;;;;;11.70;2.65;;;14.60;99.90;;;;;;7368741;19;20014;-47
2022/11/09 12:45:28;;;;;;;10.50;2.53;;;14.70;99.90;;;;;;7368814;19;20450;-45
2022/11/09 12:48:31;;;;;;;11.18;2.40;;;14.70;99.90;;;;;;7377322;19;20018;-48
2022/11/09 12:51:16;;;;;;;12.52;2.25;;;14.50;99.90;;;;;;7375852;19;20018;-49
2022/11/09 12:54:09;;;;;;;9.55;1.95;;;14.50;99.90;;;;;;7369058;19;20494;-46
2022/11/09 12:56:58;;;;;;;6.85;2.55;;;14.40;99.90;;;;;;7369422;19;20455;-47
2022/11/09 12:59:50;;;;;;;9.52;2.38;;;14.30;99.90;;;;;;7374368;19;20478;-39
2022/11/09 13:03:01;;;;;;;8.23;2.58;;;14.10;99.90;;;;;;7375481;19;20026;-47
2022/11/09 13:05:48;;;;;;;8.53;2.57;;;14.10;99.90;;;;;;7375886;19;20022;-45
2022/11/09 13:08:33;;;;;;;7.28;2.13;;;14.00;99.90;;;;;;7378012;19;20019;-39
2022/11/09 13:11:20;;;;;;;7.05;2.13;;;14.00;99.90;;;;;;7372591;19;20436;-38
2022/11/09 13:14:27;;;;;;;5.88;2.05;;;13.90;99.90;;;;;;7372547;19;21376;-39
2022/11/09 13:17:29;;;;;;;10.27;2.08;;;14.00;99.90;;;;;;7371767;19;20022;-39
2022/11/09 13:20:33;;;;;;;;;;;14.00;99.90;;;;;;7373214;19;20110;-39